Carnival Pride — H3VU — position and weather

sailwx.info

Track history (hours):
 
Tides and Currents Weather Stations Pressure Air Temp Water Temp Dewpoint Dewpoint Depression Visibility Wind Speed Wind Dir Waves Ship Positions

Carnival Pride

Operator: Carnival Cruise Lines

Last reported at 2015-Jul-05 17:30 UTC. Time now 2015-Jul-05 17:35 UTC.
Position N 39°16' W 076°36'.

Type: Ship. MMSI: 354215000.

Date/timePositionNaut miles runAvg speedWind from/ knotsBaromVisibWave heightAir tempDewpointWater temp
2015-Jul-05 17:30N 39°16' W 076°36'0 0.0
2015-Jul-05 16:33N 39°16' W 076°36'0 0.0
2015-Jul-05 15:33N 39°16' W 076°36'0 0.0
2015-Jul-05 14:33N 39°16' W 076°36'0 0.0
2015-Jul-05 13:33N 39°16' W 076°36'0 0.0
2015-Jul-05 12:32N 39°16' W 076°36'4 3.6
2015-Jul-05 11:33N 39°14' W 076°32'1110.6
2015-Jul-05 10:34N 39°06' W 076°24'1515.3
2015-Jul-05 09:33N 38°50' W 076°24'2419.1
2015-Jul-05 08:19N 38°27' W 076°22'1620.3
2015-Jul-05 07:33N 38°12' W 076°14'20316.9
2015-Jul-04 19:33N 34°52' W 075°30'4220.8
2015-Jul-04 17:33N 34°21' W 076°03'16421.6
2015-Jul-04 10:00N 32°18' W 078°12'29723.3 250 / 201019.0 2.2 1.526.023.030.0
2015-Jul-03 21:15N 27°29' W 079°29'1924.9
2015-Jul-03 20:29N 27°12' W 079°21'2723.7
2015-Jul-03 19:19N 26°46' W 079°09'51 1.5
2015-Jul-02 08:28N 26°15' W 078°25'1717.5
2015-Jul-02 07:29N 26°21' W 078°43'7318.7
2015-Jul-02 03:34N 27°17' W 079°35'2016.7
2015-Jul-02 02:23N 27°33' W 079°48'247 7.5
2015-Jun-30 17:24N 31°40' W 080°01'18312.3
2015-Jun-30 02:33N 33°37' W 077°14'1211.5
2015-Jun-30 01:33N 33°45' W 077°04'1111.4
2015-Jun-30 00:33N 33°52' W 076°54'15510.6
2015-Jun-29 10:00N 36°06' W 075°18'11815.2 050 / 121016.0 1.024.023.030.0
2015-Jun-29 02:12N 37°57' W 076°10'5519.6
2015-Jun-28 23:25N 38°50' W 076°24'2513.2
2015-Jun-28 21:34N 39°14' W 076°33'3 3.0
2015-Jun-28 20:31N 39°16' W 076°36'0 0.0
2015-Jun-28 19:31N 39°16' W 076°36'0 0.0
2015-Jun-28 18:33N 39°16' W 076°36'0 0.0
2015-Jun-28 17:33N 39°16' W 076°36'0 0.0
2015-Jun-28 16:32N 39°16' W 076°36'0 0.0
2015-Jun-28 15:33N 39°16' W 076°36'0 0.0
2015-Jun-28 14:32N 39°16' W 076°36'0 0.0
2015-Jun-28 13:33N 39°16' W 076°36'0 0.0
2015-Jun-28 12:33N 39°16' W 076°36'4 4.3
2015-Jun-28 11:31N 39°13' W 076°32'1511.2
2015-Jun-28 10:09N 38°59' W 076°23'1017.5
2015-Jun-28 09:34N 38°49' W 076°25'4419.3
2015-Jun-28 07:16N 38°06' W 076°13'22116.1
2015-Jun-27 17:33N 34°25' W 076°03'16221.4
2015-Jun-27 10:00N 32°24' W 078°12'29623.6 240 / 241016.0 2.2 1.027.024.030.0
2015-Jun-26 21:27N 27°37' W 079°33'2224.6
2015-Jun-26 20:33N 27°17' W 079°23'3323.1
2015-Jun-26 19:08N 26°46' W 079°09'  
Track history (hours):
 
Tides and Currents Weather Stations Pressure Air Temp Water Temp Dewpoint Dewpoint Depression Visibility Wind Speed Wind Dir Waves Ship Positions

Carnival Pride

Operator: Carnival Cruise Lines

Last reported at 2015-Jul-05 17:30 UTC. Time now 2015-Jul-05 17:35 UTC.
Position N 39°16' W 076°36'.

Type: Ship. MMSI: 354215000.

Date/timePositionNaut miles runAvg speedWind from/ knotsBaromVisibWave heightAir tempDewpointWater temp
2015-Jul-05 17:30N 39°16' W 076°36'0 0.0
2015-Jul-05 16:33N 39°16' W 076°36'0 0.0
2015-Jul-05 15:33N 39°16' W 076°36'0 0.0
2015-Jul-05 14:33N 39°16' W 076°36'0 0.0
2015-Jul-05 13:33N 39°16' W 076°36'0 0.0
2015-Jul-05 12:32N 39°16' W 076°36'4 3.6
2015-Jul-05 11:33N 39°14' W 076°32'1110.6
2015-Jul-05 10:34N 39°06' W 076°24'1515.3
2015-Jul-05 09:33N 38°50' W 076°24'2419.1
2015-Jul-05 08:19N 38°27' W 076°22'1620.3
2015-Jul-05 07:33N 38°12' W 076°14'20316.9
2015-Jul-04 19:33N 34°52' W 075°30'4220.8
2015-Jul-04 17:33N 34°21' W 076°03'16421.6
2015-Jul-04 10:00N 32°18' W 078°12'29723.3 250 / 201019.0 2.2 1.526.023.030.0
2015-Jul-03 21:15N 27°29' W 079°29'1924.9
2015-Jul-03 20:29N 27°12' W 079°21'2723.7
2015-Jul-03 19:19N 26°46' W 079°09'51 1.5
2015-Jul-02 08:28N 26°15' W 078°25'1717.5
2015-Jul-02 07:29N 26°21' W 078°43'7318.7
2015-Jul-02 03:34N 27°17' W 079°35'2016.7
2015-Jul-02 02:23N 27°33' W 079°48'247 7.5
2015-Jun-30 17:24N 31°40' W 080°01'18312.3
2015-Jun-30 02:33N 33°37' W 077°14'1211.5
2015-Jun-30 01:33N 33°45' W 077°04'1111.4
2015-Jun-30 00:33N 33°52' W 076°54'15510.6
2015-Jun-29 10:00N 36°06' W 075°18'11815.2 050 / 121016.0 1.024.023.030.0
2015-Jun-29 02:12N 37°57' W 076°10'5519.6
2015-Jun-28 23:25N 38°50' W 076°24'2513.2
2015-Jun-28 21:34N 39°14' W 076°33'3 3.0
2015-Jun-28 20:31N 39°16' W 076°36'0 0.0
2015-Jun-28 19:31N 39°16' W 076°36'0 0.0
2015-Jun-28 18:33N 39°16' W 076°36'0 0.0
2015-Jun-28 17:33N 39°16' W 076°36'0 0.0
2015-Jun-28 16:32N 39°16' W 076°36'0 0.0
2015-Jun-28 15:33N 39°16' W 076°36'0 0.0
2015-Jun-28 14:32N 39°16' W 076°36'0 0.0
2015-Jun-28 13:33N 39°16' W 076°36'0 0.0
2015-Jun-28 12:33N 39°16' W 076°36'4 4.3
2015-Jun-28 11:31N 39°13' W 076°32'1511.2
2015-Jun-28 10:09N 38°59' W 076°23'1017.5
2015-Jun-28 09:34N 38°49' W 076°25'4419.3
2015-Jun-28 07:16N 38°06' W 076°13'22116.1
2015-Jun-27 17:33N 34°25' W 076°03'16221.4
2015-Jun-27 10:00N 32°24' W 078°12'29623.6 240 / 241016.0 2.2 1.027.024.030.0
2015-Jun-26 21:27N 27°37' W 079°33'2224.6
2015-Jun-26 20:33N 27°17' W 079°23'3323.1
2015-Jun-26 19:08N 26°46' W 079°09'  

Dump ship's entire track history